Terminal Aerodrome Forecast
Issued by NWS Northern Indiana

Home | Current Version | Previous Version | Graphics & Text | Print | Product List | Glossary On
Versions: 1 2 3 4 5 6 7 8 9 10 11 12 13 14 15 16 17 18 19
000
FTUS43 KIWX 070900 AAA
TAFFWA
TAF AMD
KFWA 070946Z 0710/0806 24012G20KT P6SM BKN040
      TEMPO 0711/0713 5SM -SHRA BR BKN030
     FM071400 25012KT P6SM BKN035
     FM080000 22007KT P6SM BKN040=

USA.gov is the U.S. government's official web portal to all federal, state and local government web resources and services.